createdAt,value
2022-10-17T00:00:46.879Z,2.40
2022-10-17T00:03:14.936Z,3.30
2022-10-17T00:05:46.099Z,2.87
2022-10-17T00:08:15.340Z,3.37
2022-10-17T00:10:43.905Z,2.87
2022-10-17T00:13:12.972Z,2.87
2022-10-17T00:15:45.287Z,2.20
2022-10-17T00:18:13.248Z,2.40
2022-10-17T00:20:41.247Z,1.90
2022-10-17T00:23:10.576Z,2.57
2022-10-17T00:25:38.570Z,2.80
2022-10-17T00:28:06.664Z,4.00
2022-10-17T00:30:34.624Z,3.77
2022-10-17T00:33:02.602Z,2.50
2022-10-17T00:35:30.620Z,2.70
2022-10-17T00:37:58.602Z,3.23
2022-10-17T00:40:27.888Z,2.00
2022-10-17T00:42:55.923Z,2.03
2022-10-17T00:45:25.737Z,2.13
2022-10-17T00:47:59.717Z,2.37
2022-10-17T00:50:28.081Z,2.57
2022-10-17T00:52:59.410Z,2.60
2022-10-17T00:55:32.113Z,2.50
2022-10-17T00:58:04.331Z,2.17
2022-10-17T01:00:32.342Z,2.60
2022-10-17T01:03:00.661Z,2.40
2022-10-17T01:05:29.227Z,2.40
2022-10-17T01:07:57.652Z,2.37
2022-10-17T01:10:32.384Z,1.70
2022-10-17T01:13:11.405Z,1.60
2022-10-17T01:15:51.351Z,2.20
2022-10-17T01:18:33.297Z,2.37
2022-10-17T01:21:35.430Z,2.13
2022-10-17T01:24:45.001Z,2.20
2022-10-17T01:27:46.113Z,1.73
2022-10-17T01:30:52.440Z,1.80
2022-10-17T01:33:33.654Z,2.37
2022-10-17T01:36:05.993Z,2.30
2022-10-17T01:38:39.190Z,2.33
2022-10-17T01:41:14.771Z,1.40
2022-10-17T01:43:49.554Z,2.20
2022-10-17T01:46:23.037Z,2.40
2022-10-17T01:48:54.301Z,2.37
2022-10-17T01:51:25.994Z,2.00
2022-10-17T01:53:57.949Z,2.27
2022-10-17T01:56:29.486Z,2.00
2022-10-17T01:59:02.243Z,1.93
2022-10-17T02:01:31.972Z,2.67
2022-10-17T02:04:03.578Z,2.03
2022-10-17T02:06:36.055Z,1.90
2022-10-17T02:09:18.736Z,1.63
2022-10-17T02:11:55.744Z,1.27
2022-10-17T02:14:32.080Z,2.20
2022-10-17T02:17:09.575Z,2.30
2022-10-17T02:19:51.560Z,1.57
2022-10-17T02:22:28.843Z,1.93
2022-10-17T02:25:03.872Z,2.20
2022-10-17T02:27:39.771Z,1.90
2022-10-17T02:30:13.659Z,2.33
2022-10-17T02:32:48.051Z,1.90
2022-10-17T02:35:21.973Z,2.43
2022-10-17T02:37:52.176Z,1.80
2022-10-17T02:40:23.879Z,2.23
2022-10-17T02:42:53.852Z,2.10
2022-10-17T02:45:22.845Z,1.30
2022-10-17T02:47:58.619Z,2.43
2022-10-17T02:50:34.435Z,1.80
2022-10-17T02:53:07.288Z,2.27
2022-10-17T02:55:40.582Z,1.53
2022-10-17T02:58:13.246Z,1.77
2022-10-17T03:00:42.816Z,1.80
2022-10-17T03:03:20.925Z,1.60
2022-10-17T03:05:50.576Z,1.77
2022-10-17T03:08:18.532Z,1.90
2022-10-17T03:10:46.479Z,2.73
2022-10-17T03:13:15.165Z,1.80
2022-10-17T03:15:43.305Z,2.30
2022-10-17T03:18:11.293Z,1.43
2022-10-17T03:20:39.294Z,1.37
2022-10-17T03:23:08.677Z,1.70
2022-10-17T03:25:36.613Z,2.50
2022-10-17T03:28:05.501Z,2.60
2022-10-17T03:30:33.964Z,1.83
2022-10-17T03:33:02.262Z,2.10
2022-10-17T03:35:30.213Z,2.03
2022-10-17T03:37:58.314Z,1.57
2022-10-17T03:40:27.631Z,1.87
2022-10-17T03:42:55.556Z,2.00
2022-10-17T03:45:23.514Z,2.07
2022-10-17T03:47:51.447Z,1.90
2022-10-17T03:50:19.358Z,1.67
2022-10-17T03:52:48.316Z,1.80
2022-10-17T03:55:16.727Z,2.37
2022-10-17T03:57:46.038Z,1.40
2022-10-17T04:00:14.719Z,1.80
2022-10-17T04:02:42.793Z,1.70
2022-10-17T04:05:10.990Z,1.67
2022-10-17T04:07:38.962Z,1.73
2022-10-17T04:10:07.903Z,1.30
2022-10-17T04:12:35.837Z,1.43
2022-10-17T04:15:05.805Z,2.03
2022-10-17T04:17:37.309Z,2.17
2022-10-17T04:20:06.986Z,1.60
2022-10-17T04:22:34.977Z,2.60
2022-10-17T04:25:02.913Z,1.60
2022-10-17T04:27:30.867Z,1.87
2022-10-17T04:29:59.098Z,2.63
2022-10-17T04:32:28.649Z,2.07
2022-10-17T04:34:56.887Z,1.63
2022-10-17T04:37:24.836Z,1.57
2022-10-17T04:39:52.807Z,2.00
2022-10-17T04:42:20.754Z,2.00
2022-10-17T04:44:48.683Z,1.73
2022-10-17T04:47:16.617Z,1.87
2022-10-17T04:49:45.889Z,2.00
2022-10-17T04:52:13.845Z,2.17
2022-10-17T04:54:41.819Z,2.13
2022-10-17T04:57:09.770Z,2.50
2022-10-17T04:59:37.770Z,1.90
2022-10-17T05:02:05.748Z,2.47
2022-10-17T05:04:33.705Z,3.63
2022-10-17T05:07:03.504Z,1.90
2022-10-17T05:09:31.826Z,3.30
2022-10-17T05:11:59.788Z,2.17
2022-10-17T05:14:27.884Z,3.07
2022-10-17T05:16:55.832Z,2.03
2022-10-17T05:19:23.811Z,1.77
2022-10-17T05:21:51.766Z,2.57
2022-10-17T05:24:21.072Z,3.30
2022-10-17T05:26:51.272Z,2.40
2022-10-17T05:29:19.328Z,2.60
2022-10-17T05:31:47.282Z,2.47
2022-10-17T05:34:15.257Z,2.60
2022-10-17T05:36:43.198Z,1.73
2022-10-17T05:39:13.474Z,2.30
2022-10-17T05:41:42.825Z,2.57
2022-10-17T05:44:10.783Z,2.57
2022-10-17T05:46:38.739Z,2.87
2022-10-17T05:49:14.872Z,2.10
2022-10-17T05:51:47.475Z,2.53
2022-10-17T05:54:15.446Z,1.97
2022-10-17T05:56:44.775Z,2.67
2022-10-17T05:59:12.757Z,2.30
2022-10-17T06:01:40.690Z,2.50
2022-10-17T06:04:08.686Z,2.60
2022-10-17T06:06:37.572Z,2.10
2022-10-17T06:09:05.874Z,3.10
2022-10-17T06:11:33.829Z,2.97
2022-10-17T06:14:03.342Z,2.43
2022-10-17T06:16:31.318Z,2.30
2022-10-17T06:18:59.268Z,2.90
2022-10-17T06:21:28.969Z,2.20
2022-10-17T06:23:56.919Z,2.57
2022-10-17T06:26:24.880Z,2.30
2022-10-17T06:28:52.919Z,3.00
2022-10-17T06:31:22.489Z,3.13
2022-10-17T06:33:50.436Z,3.17
2022-10-17T06:36:18.553Z,2.83
2022-10-17T06:38:46.582Z,3.33
2022-10-17T06:41:16.198Z,3.00
2022-10-17T06:43:46.581Z,2.10
2022-10-17T06:46:16.575Z,2.67
2022-10-17T06:48:46.050Z,3.30
2022-10-17T06:51:14.088Z,3.20
2022-10-17T06:53:42.568Z,3.07
2022-10-17T06:56:11.333Z,2.30
2022-10-17T06:58:40.713Z,2.00
2022-10-17T07:01:10.592Z,2.90
2022-10-17T07:03:38.877Z,3.60
2022-10-17T07:06:08.666Z,3.23
2022-10-17T07:08:36.634Z,2.80
2022-10-17T07:11:11.245Z,2.97
2022-10-17T07:13:39.502Z,2.13
2022-10-17T07:16:08.301Z,2.33
2022-10-17T07:18:36.393Z,2.87
2022-10-17T07:21:04.771Z,2.57
2022-10-17T07:23:36.579Z,3.30
2022-10-17T07:26:07.518Z,3.17
2022-10-17T07:28:35.972Z,2.73
2022-10-17T07:31:07.925Z,3.00
2022-10-17T07:33:36.101Z,2.70
2022-10-17T07:36:05.078Z,2.80
2022-10-17T07:38:35.045Z,3.33
2022-10-17T07:41:04.691Z,2.67
2022-10-17T07:43:33.466Z,3.27
2022-10-17T07:46:02.500Z,3.67
2022-10-17T07:48:31.121Z,3.20
2022-10-17T07:50:59.074Z,2.90
2022-10-17T07:53:27.026Z,3.77
2022-10-17T07:55:56.309Z,3.30
2022-10-17T07:58:24.263Z,3.20
2022-10-17T08:00:52.289Z,2.63
2022-10-17T08:03:20.403Z,3.10
2022-10-17T08:05:48.366Z,2.13
2022-10-17T08:08:16.318Z,2.43
2022-10-17T08:10:44.363Z,3.00
2022-10-17T08:13:13.645Z,3.03
2022-10-17T08:15:41.914Z,2.80
2022-10-17T08:18:09.834Z,2.70
2022-10-17T08:20:38.445Z,3.90
2022-10-17T08:23:06.407Z,2.57
2022-10-17T08:25:34.506Z,2.10
2022-10-17T08:28:02.704Z,1.97
2022-10-17T08:30:32.075Z,1.80
2022-10-17T08:33:00.023Z,2.23
2022-10-17T08:35:28.010Z,1.60
2022-10-17T08:37:55.978Z,1.73
2022-10-17T08:40:27.394Z,1.50
2022-10-17T08:43:21.891Z,1.90
2022-10-17T08:45:55.238Z,2.03
2022-10-17T08:48:26.599Z,1.90
2022-10-17T08:50:57.718Z,1.13
2022-10-17T08:53:32.062Z,1.60
2022-10-17T08:56:07.224Z,1.70
2022-10-17T08:58:38.107Z,1.67
2022-10-17T09:01:15.624Z,1.60
2022-10-17T09:03:53.238Z,1.87
2022-10-17T09:06:29.644Z,1.63
2022-10-17T09:09:10.293Z,1.70
2022-10-17T09:12:00.685Z,1.53
2022-10-17T09:14:59.413Z,1.50
2022-10-17T09:17:37.206Z,2.10
2022-10-17T09:20:11.061Z,2.40
2022-10-17T09:22:43.977Z,1.70
2022-10-17T09:25:15.325Z,2.17
2022-10-17T09:27:47.581Z,1.50
2022-10-17T09:30:46.169Z,1.60
2022-10-17T09:33:28.515Z,1.80
2022-10-17T09:36:06.045Z,1.40
2022-10-17T09:38:39.878Z,1.90
2022-10-17T09:41:39.182Z,1.83
2022-10-17T09:44:15.885Z,1.70
2022-10-17T09:46:47.765Z,1.47
2022-10-17T09:49:21.511Z,1.50
2022-10-17T09:51:49.885Z,1.93
2022-10-17T09:54:22.856Z,1.83
2022-10-17T09:57:02.267Z,1.33
2022-10-17T09:59:33.125Z,1.43
2022-10-17T10:02:17.379Z,1.17
2022-10-17T10:05:04.752Z,1.43
2022-10-17T10:07:35.633Z,1.47
2022-10-17T10:10:05.628Z,1.63
2022-10-17T10:12:35.524Z,2.10
2022-10-17T10:15:23.539Z,1.20
2022-10-17T10:17:53.569Z,1.70
2022-10-17T10:20:35.776Z,1.60
2022-10-17T10:23:09.232Z,1.80
2022-10-17T10:25:37.547Z,1.63
2022-10-17T10:28:11.850Z,1.47
2022-10-17T10:30:40.158Z,2.30
2022-10-17T10:33:13.176Z,1.57
2022-10-17T10:35:42.562Z,1.80
2022-10-17T10:38:14.754Z,1.30
2022-10-17T10:40:48.244Z,1.40
2022-10-17T10:43:25.443Z,1.60
2022-10-17T10:45:54.395Z,1.33
2022-10-17T10:48:24.198Z,1.53
2022-10-17T10:50:57.852Z,1.40
2022-10-17T10:53:35.457Z,2.00
2022-10-17T10:56:09.096Z,1.57
2022-10-17T10:58:48.757Z,1.90
2022-10-17T11:01:23.540Z,1.40
2022-10-17T11:04:09.190Z,1.80
2022-10-17T11:06:43.127Z,1.23
2022-10-17T11:09:19.331Z,1.40
2022-10-17T11:11:52.553Z,1.43
2022-10-17T11:14:28.568Z,1.80
2022-10-17T11:17:04.234Z,1.40
2022-10-17T11:19:38.175Z,1.30
2022-10-17T11:22:15.901Z,1.60
2022-10-17T11:24:49.755Z,1.77
2022-10-17T11:27:17.750Z,1.27
2022-10-17T11:29:46.626Z,1.90
2022-10-17T11:32:20.556Z,1.37
2022-10-17T11:34:51.086Z,1.10
2022-10-17T11:37:24.087Z,1.10
2022-10-17T11:39:55.918Z,1.87
2022-10-17T11:42:29.639Z,1.27
2022-10-17T11:45:03.010Z,1.37
2022-10-17T11:47:40.404Z,1.40
2022-10-17T11:53:15.969Z,0.90
2022-10-17T11:55:44.639Z,1.10
2022-10-17T11:58:24.538Z,0.90
2022-10-17T12:01:01.612Z,0.90
2022-10-17T12:03:52.743Z,1.10
2022-10-17T12:06:32.423Z,2.37
2022-10-17T12:09:08.585Z,1.10
2022-10-17T12:11:46.513Z,1.13
2022-10-17T12:14:37.691Z,1.27
2022-10-17T12:17:06.959Z,1.60
2022-10-17T12:19:37.729Z,1.50
2022-10-17T12:22:18.814Z,1.37
2022-10-17T12:24:56.835Z,1.50
2022-10-17T12:27:47.286Z,1.30
2022-10-17T12:30:24.229Z,1.60
2022-10-17T12:33:06.496Z,1.20
2022-10-17T12:35:37.006Z,1.00
2022-10-17T12:38:29.057Z,1.30
2022-10-17T12:41:03.174Z,1.80
2022-10-17T12:43:57.928Z,0.97
2022-10-17T12:46:51.061Z,0.87
2022-10-17T12:49:25.283Z,1.20
2022-10-17T12:52:29.492Z,1.03
2022-10-17T12:55:12.185Z,1.07
2022-10-17T12:58:01.137Z,1.77
2022-10-17T13:00:34.588Z,1.90
2022-10-17T13:03:11.613Z,1.03
2022-10-17T13:05:43.433Z,1.20
2022-10-17T13:08:18.870Z,1.30
2022-10-17T13:10:51.707Z,2.13
2022-10-17T13:13:24.516Z,0.97
2022-10-17T13:15:55.996Z,1.10
2022-10-17T13:18:25.950Z,0.90
2022-10-17T13:21:02.128Z,1.30
2022-10-17T13:23:36.874Z,1.30
2022-10-17T13:26:07.109Z,1.13
2022-10-17T13:28:39.901Z,1.13
2022-10-17T13:31:09.805Z,1.00
2022-10-17T13:33:42.323Z,0.70
2022-10-17T13:36:19.658Z,1.00
2022-10-17T13:38:51.776Z,1.03
2022-10-17T13:41:35.392Z,1.10
2022-10-17T13:44:09.471Z,0.77
2022-10-17T13:46:39.359Z,1.23
2022-10-17T13:49:13.245Z,1.00
2022-10-17T13:51:44.667Z,2.70
2022-10-17T13:54:19.790Z,1.20
2022-10-17T13:56:48.083Z,1.10
2022-10-17T13:59:24.655Z,1.10
2022-10-17T14:01:53.170Z,1.03
2022-10-17T14:04:21.446Z,1.10
2022-10-17T14:06:52.291Z,0.80
2022-10-17T14:09:23.464Z,0.80
2022-10-17T14:11:59.640Z,1.20
2022-10-17T14:14:32.184Z,0.90
2022-10-17T14:17:14.442Z,1.07
2022-10-17T14:19:46.020Z,1.13
2022-10-17T14:22:18.337Z,1.23
2022-10-17T14:24:46.705Z,1.20
2022-10-17T14:27:28.394Z,0.90
2022-10-17T14:30:00.752Z,1.20
2022-10-17T14:32:29.856Z,1.07
2022-10-17T14:35:17.801Z,1.03
2022-10-17T14:37:49.185Z,0.60
2022-10-17T14:40:18.175Z,1.17
2022-10-17T14:42:46.613Z,0.90
2022-10-17T14:45:23.402Z,0.90
2022-10-17T14:47:52.278Z,0.83
2022-10-17T14:50:23.515Z,0.93
2022-10-17T14:53:01.310Z,1.00
2022-10-17T14:55:30.689Z,0.90
2022-10-17T14:57:59.069Z,1.40
2022-10-17T15:00:28.896Z,1.10
2022-10-17T15:02:57.831Z,1.00
2022-10-17T15:05:26.101Z,1.20
2022-10-17T15:07:55.459Z,1.50
2022-10-17T15:10:29.034Z,1.30
2022-10-17T15:12:59.947Z,1.20
2022-10-17T15:15:40.068Z,1.20
2022-10-17T15:18:08.939Z,1.20
2022-10-17T15:20:37.291Z,1.53
2022-10-17T15:23:06.025Z,1.27
2022-10-17T15:25:34.466Z,1.17
2022-10-17T15:28:02.693Z,1.30
2022-10-17T15:30:32.760Z,1.37
2022-10-17T15:33:02.443Z,1.00
2022-10-17T15:35:30.794Z,1.17
2022-10-17T15:37:59.047Z,1.50
2022-10-17T15:40:28.778Z,1.60
2022-10-17T15:42:57.400Z,2.13
2022-10-17T15:45:25.945Z,1.67
2022-10-17T15:47:55.653Z,1.50
2022-10-17T15:50:25.294Z,1.40
2022-10-17T15:52:53.994Z,1.77
2022-10-17T15:55:22.233Z,1.20
2022-10-17T15:57:50.794Z,1.10
2022-10-17T16:00:20.547Z,1.67
2022-10-17T16:02:49.242Z,1.70
2022-10-17T16:05:17.991Z,1.70
2022-10-17T16:07:48.307Z,2.40
2022-10-17T16:10:17.061Z,2.43
2022-10-17T16:12:45.553Z,1.83
2022-10-17T16:15:15.450Z,7.30
2022-10-17T16:17:43.963Z,6.80
2022-10-17T16:20:12.769Z,6.47
2022-10-17T16:22:42.189Z,5.20
2022-10-17T16:25:19.430Z,4.00
2022-10-17T16:27:48.245Z,3.13
2022-10-17T16:30:16.736Z,2.40
2022-10-17T16:32:45.293Z,2.43
2022-10-17T16:35:15.324Z,2.63
2022-10-17T16:37:43.581Z,6.30
2022-10-17T16:40:13.801Z,6.43
2022-10-17T16:42:42.078Z,3.70
2022-10-17T16:45:10.870Z,3.27
2022-10-17T16:47:39.144Z,3.47
2022-10-17T16:50:07.761Z,2.73
2022-10-17T16:52:36.040Z,5.60
2022-10-17T16:55:04.355Z,2.90
2022-10-17T16:57:34.392Z,2.53
2022-10-17T17:00:02.682Z,2.63
2022-10-17T17:02:31.202Z,1.57
2022-10-17T17:04:59.750Z,2.33
2022-10-17T17:07:30.194Z,6.77
2022-10-17T17:09:58.880Z,7.80
2022-10-17T17:12:27.143Z,6.60
2022-10-17T17:14:56.941Z,4.63
2022-10-17T17:17:37.219Z,3.87
2022-10-17T17:20:13.509Z,9.10
2022-10-17T17:22:41.749Z,4.10
2022-10-17T17:25:10.492Z,3.67
2022-10-17T17:27:38.727Z,3.80
2022-10-17T17:30:08.997Z,2.37
2022-10-17T17:32:37.257Z,2.60
2022-10-17T17:35:05.682Z,1.97
2022-10-17T17:37:33.960Z,2.30
2022-10-17T17:40:02.219Z,2.50
2022-10-17T17:42:30.460Z,3.83
2022-10-17T17:44:58.697Z,2.57
2022-10-17T17:47:31.463Z,2.73
2022-10-17T17:49:59.885Z,1.73
2022-10-17T17:52:29.832Z,2.63
2022-10-17T17:54:58.366Z,1.63
2022-10-17T17:57:26.604Z,2.70
2022-10-17T17:59:54.833Z,2.13
2022-10-17T18:02:23.084Z,2.47
2022-10-17T18:04:52.704Z,2.33
2022-10-17T18:07:21.095Z,2.27
2022-10-17T18:09:50.924Z,1.70
2022-10-17T18:12:19.205Z,1.60
2022-10-17T18:14:47.525Z,1.77
2022-10-17T18:17:15.787Z,2.50
2022-10-17T18:19:44.085Z,2.90
2022-10-17T18:22:13.723Z,2.20
2022-10-17T18:24:42.041Z,1.93
2022-10-17T18:27:10.353Z,2.20
2022-10-17T18:29:38.589Z,2.30
2022-10-17T18:32:07.099Z,2.20
2022-10-17T18:34:35.368Z,1.97
2022-10-17T18:37:03.825Z,1.93
2022-10-17T18:39:33.449Z,1.63
2022-10-17T18:42:01.867Z,3.53
2022-10-17T18:44:30.140Z,2.17
2022-10-17T18:47:03.053Z,2.20
2022-10-17T18:49:32.692Z,2.07
2022-10-17T18:52:01.041Z,3.03
2022-10-17T18:54:32.106Z,2.23
2022-10-17T18:57:02.186Z,2.00
2022-10-17T18:59:30.514Z,2.33
2022-10-17T19:01:58.888Z,2.27
2022-10-17T19:04:27.542Z,1.90
2022-10-17T19:06:55.928Z,2.10
2022-10-17T19:09:24.270Z,2.37
2022-10-17T19:11:52.512Z,2.00
2022-10-17T19:14:22.205Z,2.40
2022-10-17T19:16:51.698Z,3.03
2022-10-17T19:19:21.507Z,2.27
2022-10-17T19:21:50.223Z,2.60
2022-10-17T19:24:20.729Z,2.00
2022-10-17T19:26:50.627Z,2.53
2022-10-17T19:29:19.492Z,1.90
2022-10-17T19:31:49.502Z,2.77
2022-10-17T19:34:18.570Z,2.90
2022-10-17T19:36:47.013Z,2.90
2022-10-17T19:39:17.094Z,2.43
2022-10-17T19:41:46.786Z,1.60
2022-10-17T19:44:15.041Z,2.87
2022-10-17T19:46:44.330Z,2.93
2022-10-17T19:49:14.268Z,2.20
2022-10-17T19:51:42.388Z,2.50
2022-10-17T19:54:10.863Z,2.57
2022-10-17T19:56:38.928Z,2.73
2022-10-17T19:59:07.533Z,2.43
2022-10-17T20:01:38.751Z,2.67
2022-10-17T20:04:07.411Z,2.27
2022-10-17T20:06:36.885Z,2.17
2022-10-17T20:09:05.589Z,2.70
2022-10-17T20:11:33.741Z,3.20
2022-10-17T20:14:02.448Z,2.50
2022-10-17T20:16:32.137Z,2.37
2022-10-17T20:19:05.622Z,2.17
2022-10-17T20:21:35.084Z,3.07
2022-10-17T20:24:06.796Z,3.10
2022-10-17T20:26:38.772Z,3.27
2022-10-17T20:29:11.871Z,2.10
2022-10-17T20:31:41.200Z,2.03
2022-10-17T20:34:09.175Z,2.83
2022-10-17T20:36:37.803Z,3.07
2022-10-17T20:39:08.410Z,3.27
2022-10-17T20:41:36.384Z,2.67
2022-10-17T20:44:04.701Z,4.13
2022-10-17T20:46:37.629Z,2.30
2022-10-17T20:49:08.887Z,3.07
2022-10-17T20:51:37.392Z,3.57
2022-10-17T20:54:06.989Z,2.77
2022-10-17T20:56:35.673Z,3.43
2022-10-17T20:59:05.857Z,3.17
2022-10-17T21:01:36.482Z,2.50
2022-10-17T21:06:53.578Z,2.07
2022-10-17T21:09:23.400Z,3.20
2022-10-17T21:11:55.090Z,2.23
2022-10-17T21:14:24.089Z,3.40
2022-10-17T21:16:53.173Z,2.70
2022-10-17T21:19:22.632Z,2.40
2022-10-17T21:21:50.894Z,2.40
2022-10-17T21:24:20.487Z,2.50
2022-10-17T21:26:55.417Z,2.27
2022-10-17T21:29:24.536Z,2.20
2022-10-17T21:31:52.808Z,2.30
2022-10-17T21:34:22.065Z,2.03
2022-10-17T21:36:50.209Z,2.70
2022-10-17T21:39:18.483Z,3.17
2022-10-17T21:41:46.487Z,3.00
2022-10-17T21:44:17.689Z,2.20
2022-10-17T21:46:46.065Z,3.37
2022-10-17T21:49:16.087Z,2.87
2022-10-17T21:51:45.201Z,2.13
2022-10-17T21:54:13.239Z,1.77
2022-10-17T21:56:41.770Z,2.90
2022-10-17T21:59:10.286Z,2.70
2022-10-17T22:01:41.622Z,2.83
2022-10-17T22:04:14.516Z,1.90
2022-10-17T22:06:44.612Z,2.47
2022-10-17T22:09:15.127Z,2.50
2022-10-17T22:11:45.464Z,2.60
2022-10-17T22:14:15.409Z,3.17
2022-10-17T22:16:46.675Z,3.03
2022-10-17T22:19:16.448Z,2.13
2022-10-17T22:21:44.455Z,2.10
2022-10-17T22:24:14.696Z,2.60
2022-10-17T22:26:44.439Z,2.37
2022-10-17T22:29:13.002Z,2.20
2022-10-17T22:31:41.289Z,2.47
2022-10-17T22:34:13.403Z,2.50
2022-10-17T22:36:41.750Z,3.20
2022-10-17T22:39:10.411Z,2.67
2022-10-17T22:41:38.340Z,2.50
2022-10-17T22:44:06.709Z,2.97
2022-10-17T22:46:34.958Z,1.90
2022-10-17T22:49:02.914Z,2.83
2022-10-17T22:51:32.306Z,2.00
2022-10-17T22:54:00.258Z,2.23
2022-10-17T22:56:28.226Z,2.60
2022-10-17T22:58:56.174Z,2.20
2022-10-17T23:01:26.257Z,2.43
2022-10-17T23:03:54.346Z,2.70
2022-10-17T23:06:22.826Z,3.70
2022-10-17T23:08:52.494Z,3.10
2022-10-17T23:11:21.312Z,2.47
2022-10-17T23:13:49.464Z,3.00
2022-10-17T23:16:17.545Z,2.10
2022-10-17T23:18:45.593Z,2.30
2022-10-17T23:21:14.574Z,4.33
2022-10-17T23:23:42.541Z,2.97
2022-10-17T23:26:14.604Z,2.77
2022-10-17T23:28:43.385Z,3.00
2022-10-17T23:31:13.492Z,2.77
2022-10-17T23:33:41.781Z,2.83
2022-10-17T23:36:10.989Z,3.20
2022-10-17T23:38:39.042Z,2.67
2022-10-17T23:41:07.366Z,4.33
2022-10-17T23:43:36.883Z,2.97
2022-10-17T23:46:06.094Z,2.47
2022-10-17T23:48:34.052Z,2.77
2022-10-17T23:51:02.002Z,2.77
2022-10-17T23:53:29.992Z,1.90
2022-10-17T23:55:57.969Z,2.57
2022-10-17T23:58:25.940Z,2.67
